createdAt,value
2022-11-15T00:00:56.406Z,3.40
2022-11-15T00:03:25.089Z,3.10
2022-11-15T00:05:51.950Z,3.40
2022-11-15T00:08:18.955Z,3.38
2022-11-15T00:10:56.193Z,3.30
2022-11-15T00:13:22.542Z,3.33
2022-11-15T00:15:48.902Z,3.40
2022-11-15T00:18:16.630Z,3.30
2022-11-15T00:20:43.703Z,3.35
2022-11-15T00:23:10.373Z,3.33
2022-11-15T00:25:37.141Z,3.13
2022-11-15T00:28:03.716Z,3.70
2022-11-15T00:30:30.626Z,3.15
2022-11-15T00:32:57.369Z,3.03
2022-11-15T00:35:23.783Z,3.05
2022-11-15T00:37:50.513Z,3.60
2022-11-15T00:40:17.017Z,3.17
2022-11-15T00:42:43.826Z,3.47
2022-11-15T00:45:10.822Z,3.88
2022-11-15T00:47:37.163Z,3.92
2022-11-15T00:50:04.715Z,3.42
2022-11-15T00:52:31.078Z,3.20
2022-11-15T00:54:57.393Z,3.33
2022-11-15T00:57:24.346Z,3.17
2022-11-15T00:59:51.243Z,2.95
2022-11-15T01:02:17.997Z,3.00
2022-11-15T01:04:44.422Z,3.20
2022-11-15T01:07:10.923Z,2.90
2022-11-15T01:09:37.778Z,3.40
2022-11-15T01:12:04.419Z,3.35
2022-11-15T01:14:30.727Z,3.42
2022-11-15T01:16:57.462Z,3.25
2022-11-15T01:19:23.882Z,2.58
2022-11-15T01:21:51.113Z,3.13
2022-11-15T01:24:17.863Z,4.05
2022-11-15T01:26:44.415Z,3.58
2022-11-15T01:29:10.720Z,3.33
2022-11-15T01:31:37.501Z,3.15
2022-11-15T01:34:03.809Z,3.28
2022-11-15T01:36:30.163Z,2.88
2022-11-15T01:39:00.053Z,2.97
2022-11-15T01:41:30.737Z,2.85
2022-11-15T01:44:19.105Z,3.50
2022-11-15T01:46:49.378Z,3.10
2022-11-15T01:49:20.214Z,2.70
2022-11-15T01:51:47.204Z,3.70
2022-11-15T01:54:16.957Z,3.08
2022-11-15T01:57:11.796Z,3.17
2022-11-15T01:59:40.722Z,3.50
2022-11-15T02:02:07.503Z,3.53
2022-11-15T02:04:39.159Z,4.15
2022-11-15T02:07:07.662Z,3.67
2022-11-15T02:09:34.118Z,3.67
2022-11-15T02:12:01.262Z,3.60
2022-11-15T02:14:29.421Z,3.05
2022-11-15T02:17:08.017Z,3.95
2022-11-15T02:19:34.285Z,3.83
2022-11-15T02:22:23.833Z,3.35
2022-11-15T02:25:04.621Z,3.42
2022-11-15T02:27:54.979Z,3.38
2022-11-15T02:30:42.298Z,2.55
2022-11-15T02:33:19.901Z,2.67
2022-11-15T02:36:01.526Z,3.80
2022-11-15T02:38:58.920Z,3.40
2022-11-15T02:41:32.505Z,3.70
2022-11-15T02:44:14.092Z,3.67
2022-11-15T02:47:02.121Z,3.30
2022-11-15T02:49:32.932Z,3.55
2022-11-15T02:51:59.260Z,3.95
2022-11-15T02:54:29.423Z,3.80
2022-11-15T02:57:01.770Z,3.08
2022-11-15T02:59:33.926Z,3.30
2022-11-15T03:02:58.088Z,2.97
2022-11-15T03:05:52.235Z,3.25
2022-11-15T03:08:24.871Z,3.72
2022-11-15T03:11:09.923Z,4.55
2022-11-15T03:13:45.589Z,3.72
2022-11-15T03:16:20.914Z,3.75
2022-11-15T03:19:06.062Z,3.70
2022-11-15T03:21:35.551Z,3.50
2022-11-15T03:24:06.745Z,3.38
2022-11-15T03:26:36.206Z,3.00
2022-11-15T03:29:28.943Z,3.47
2022-11-15T03:32:01.906Z,3.10
2022-11-15T03:34:43.971Z,3.30
2022-11-15T03:37:14.098Z,3.78
2022-11-15T03:39:40.593Z,3.33
2022-11-15T03:42:16.475Z,3.60
2022-11-15T03:44:53.567Z,3.25
2022-11-15T03:47:48.885Z,3.00
2022-11-15T03:50:19.022Z,3.35
2022-11-15T03:52:50.897Z,3.50
2022-11-15T03:55:20.589Z,3.42
2022-11-15T03:57:52.414Z,3.15
2022-11-15T04:00:18.896Z,4.03
2022-11-15T04:02:45.423Z,3.40
2022-11-15T04:05:12.316Z,3.75
2022-11-15T04:07:38.627Z,3.67
2022-11-15T04:10:08.643Z,3.67
2022-11-15T04:12:38.234Z,3.83
2022-11-15T04:15:08.244Z,3.65
2022-11-15T04:17:43.856Z,4.15
2022-11-15T04:20:44.227Z,3.92
2022-11-15T04:23:36.587Z,3.78
2022-11-15T04:26:16.861Z,3.10
2022-11-15T04:29:02.334Z,3.30
2022-11-15T04:31:29.351Z,3.20
2022-11-15T04:33:55.740Z,3.20
2022-11-15T04:36:41.559Z,3.60
2022-11-15T04:39:08.218Z,2.95
2022-11-15T04:41:34.650Z,2.90
2022-11-15T04:44:01.629Z,3.53
2022-11-15T04:46:28.230Z,2.88
2022-11-15T04:48:58.901Z,3.33
2022-11-15T04:51:25.730Z,3.53
2022-11-15T04:53:52.053Z,3.40
2022-11-15T04:56:18.929Z,3.25
2022-11-15T04:58:45.238Z,3.20
2022-11-15T05:01:15.401Z,3.60
2022-11-15T05:04:01.349Z,3.70
2022-11-15T05:06:27.793Z,3.53
2022-11-15T05:08:54.491Z,3.75
2022-11-15T05:11:22.360Z,3.70
2022-11-15T05:13:48.769Z,3.33
2022-11-15T05:16:15.119Z,3.20
2022-11-15T05:18:42.195Z,4.60
2022-11-15T05:21:13.959Z,4.72
2022-11-15T05:23:41.387Z,4.65
2022-11-15T05:26:09.812Z,4.15
2022-11-15T05:28:37.620Z,4.30
2022-11-15T05:31:12.981Z,4.68
2022-11-15T05:33:40.862Z,4.90
2022-11-15T05:36:22.891Z,5.05
2022-11-15T05:38:50.725Z,3.42
2022-11-15T05:41:21.635Z,4.03
2022-11-15T05:43:50.026Z,4.40
2022-11-15T05:46:16.759Z,4.78
2022-11-15T05:48:49.590Z,3.80
2022-11-15T05:51:18.113Z,3.83
2022-11-15T05:53:45.981Z,3.95
2022-11-15T05:56:13.778Z,4.07
2022-11-15T05:58:40.493Z,4.05
2022-11-15T06:01:06.907Z,4.15
2022-11-15T06:03:33.497Z,4.07
2022-11-15T06:06:00.344Z,3.85
2022-11-15T06:08:26.655Z,4.15
2022-11-15T06:10:52.980Z,4.43
2022-11-15T06:13:19.935Z,3.58
2022-11-15T06:15:46.259Z,3.97
2022-11-15T06:18:12.645Z,3.83
2022-11-15T06:20:39.335Z,3.95
2022-11-15T06:23:06.158Z,4.13
2022-11-15T06:25:32.598Z,4.63
2022-11-15T06:27:59.978Z,4.45
2022-11-15T06:30:27.264Z,5.20
2022-11-15T06:33:01.655Z,4.75
2022-11-15T06:35:28.434Z,4.03
2022-11-15T06:37:54.744Z,4.07
2022-11-15T06:40:21.540Z,4.22
2022-11-15T06:42:48.287Z,4.00
2022-11-15T06:45:14.666Z,3.78
2022-11-15T06:47:47.645Z,3.88
2022-11-15T06:50:14.781Z,3.92
2022-11-15T06:52:41.092Z,4.05
2022-11-15T06:55:08.299Z,4.40
2022-11-15T06:57:34.981Z,5.03
2022-11-15T07:00:01.630Z,3.95
2022-11-15T07:02:27.945Z,4.50
2022-11-15T07:04:54.613Z,5.10
2022-11-15T07:07:21.004Z,4.53
2022-11-15T07:09:47.348Z,4.30
2022-11-15T07:12:14.255Z,5.10
2022-11-15T07:14:40.618Z,4.95
2022-11-15T07:17:07.015Z,5.50
2022-11-15T07:19:33.791Z,5.65
2022-11-15T07:22:00.139Z,5.68
2022-11-15T07:24:26.454Z,4.93
2022-11-15T07:26:53.643Z,5.45
2022-11-15T07:29:19.984Z,5.90
2022-11-15T07:31:46.296Z,5.95
2022-11-15T07:34:13.159Z,5.72
2022-11-15T07:36:39.490Z,6.63
2022-11-15T07:39:05.788Z,7.78
2022-11-15T07:41:32.513Z,8.48
2022-11-15T07:43:59.417Z,8.93
2022-11-15T07:46:25.723Z,9.13
2022-11-15T07:48:52.549Z,9.75
2022-11-15T07:51:19.556Z,10.38
2022-11-15T07:53:45.878Z,9.75
2022-11-15T07:56:13.253Z,10.73
2022-11-15T07:58:39.777Z,11.93
2022-11-15T08:01:08.434Z,17.40
2022-11-15T08:03:35.853Z,14.93
2022-11-15T08:06:02.973Z,14.85
2022-11-15T08:08:29.378Z,20.52
2022-11-15T08:10:55.743Z,14.52
2022-11-15T08:13:22.266Z,12.82
2022-11-15T08:15:53.442Z,11.40
2022-11-15T08:18:22.695Z,11.50
2022-11-15T08:20:49.370Z,11.43
2022-11-15T08:23:15.687Z,8.85
2022-11-15T08:25:42.391Z,8.35
2022-11-15T08:28:11.412Z,7.53
2022-11-15T08:30:42.478Z,7.90
2022-11-15T08:33:13.937Z,7.32
2022-11-15T08:35:44.319Z,7.35
2022-11-15T08:38:11.231Z,8.10
2022-11-15T08:40:38.649Z,8.35
2022-11-15T08:43:05.518Z,8.63
2022-11-15T08:45:34.879Z,9.05
2022-11-15T08:48:04.625Z,8.75
2022-11-15T08:50:31.103Z,8.40
2022-11-15T08:52:57.959Z,7.55
2022-11-15T08:55:24.908Z,7.68
2022-11-15T08:57:51.677Z,7.97
2022-11-15T09:00:18.673Z,7.93
2022-11-15T09:02:44.979Z,8.20
2022-11-15T09:05:11.306Z,8.25
2022-11-15T09:07:37.981Z,8.00
2022-11-15T09:10:05.058Z,7.93
2022-11-15T09:12:31.857Z,7.97
2022-11-15T09:14:59.341Z,9.02
2022-11-15T09:17:25.674Z,7.88
2022-11-15T09:19:52.456Z,7.40
2022-11-15T09:22:19.115Z,7.90
2022-11-15T09:24:45.877Z,7.95
2022-11-15T09:27:13.409Z,7.30
2022-11-15T09:29:39.898Z,7.70
2022-11-15T09:32:06.850Z,7.93
2022-11-15T09:34:33.172Z,7.53
2022-11-15T09:36:59.551Z,7.43
2022-11-15T09:39:26.275Z,8.65
2022-11-15T09:42:02.375Z,7.50
2022-11-15T09:44:57.295Z,7.82
2022-11-15T09:47:39.439Z,8.05
2022-11-15T09:50:12.385Z,8.05
2022-11-15T09:52:42.374Z,8.18
2022-11-15T09:55:14.685Z,8.35
2022-11-15T09:58:05.011Z,7.30
2022-11-15T10:00:47.025Z,7.30
2022-11-15T10:03:38.307Z,7.25
2022-11-15T10:06:07.681Z,7.60
2022-11-15T10:08:46.371Z,7.63
2022-11-15T10:11:38.197Z,7.65
2022-11-15T10:14:18.986Z,7.10
2022-11-15T10:17:03.894Z,8.43
2022-11-15T10:19:37.599Z,8.63
2022-11-15T10:22:39.422Z,8.23
2022-11-15T10:25:20.727Z,8.35
2022-11-15T10:28:25.302Z,7.93
2022-11-15T10:30:54.802Z,5.95
2022-11-15T10:33:38.030Z,8.93
2022-11-15T10:36:10.315Z,8.40
2022-11-15T10:38:49.207Z,8.38
2022-11-15T10:41:31.163Z,8.65
2022-11-15T10:44:10.859Z,9.57
2022-11-15T10:46:46.695Z,7.95
2022-11-15T10:49:23.517Z,6.07
2022-11-15T10:51:56.137Z,7.60
2022-11-15T10:54:29.195Z,7.15
2022-11-15T10:56:59.278Z,7.43
2022-11-15T10:59:33.704Z,8.60
2022-11-15T11:02:24.463Z,9.98
2022-11-15T11:04:52.064Z,9.55
2022-11-15T11:07:31.174Z,7.32
2022-11-15T11:10:01.352Z,6.95
2022-11-15T11:12:31.565Z,6.80
2022-11-15T11:15:02.532Z,7.25
2022-11-15T11:17:37.503Z,6.65
2022-11-15T11:20:16.091Z,7.40
2022-11-15T11:23:01.682Z,5.43
2022-11-15T11:25:43.938Z,7.13
2022-11-15T11:28:19.793Z,6.28
2022-11-15T11:31:08.017Z,6.35
2022-11-15T11:33:46.166Z,6.53
2022-11-15T11:36:37.197Z,6.30
2022-11-15T11:39:30.848Z,7.00
2022-11-15T11:42:44.250Z,5.88
2022-11-15T11:45:10.930Z,6.35
2022-11-15T11:47:41.729Z,5.35
2022-11-15T11:50:21.309Z,5.70
2022-11-15T11:52:59.542Z,5.25
2022-11-15T11:55:42.957Z,5.07
2022-11-15T11:58:18.310Z,5.22
2022-11-15T12:00:52.772Z,5.93
2022-11-15T12:03:37.919Z,4.80
2022-11-15T12:06:51.418Z,4.38
2022-11-15T12:09:42.599Z,5.03
2022-11-15T12:12:27.609Z,5.30
2022-11-15T12:15:17.379Z,5.45
2022-11-15T12:17:44.516Z,5.57
2022-11-15T12:20:23.774Z,5.95
2022-11-15T12:23:14.859Z,6.03
2022-11-15T12:25:49.322Z,5.53
2022-11-15T12:28:48.595Z,5.10
2022-11-15T12:31:40.028Z,5.47
2022-11-15T12:34:21.681Z,6.38
2022-11-15T12:36:50.169Z,7.82
2022-11-15T12:39:17.849Z,6.60
2022-11-15T12:41:56.698Z,6.28
2022-11-15T12:44:32.504Z,6.65
2022-11-15T12:46:58.760Z,6.45
2022-11-15T12:49:25.027Z,6.43
2022-11-15T12:51:53.212Z,6.68
2022-11-15T12:54:22.568Z,6.72
2022-11-15T12:57:04.783Z,6.60
2022-11-15T12:59:51.038Z,6.35
2022-11-15T13:02:23.466Z,6.07
2022-11-15T13:04:51.139Z,5.82
2022-11-15T13:07:35.870Z,5.32
2022-11-15T13:10:27.924Z,5.22
2022-11-15T13:13:00.562Z,5.28
2022-11-15T13:16:02.168Z,5.70
2022-11-15T13:18:32.082Z,6.07
2022-11-15T13:21:02.353Z,6.50
2022-11-15T13:23:29.354Z,5.95
2022-11-15T13:26:07.019Z,6.55
2022-11-15T13:28:36.678Z,6.88
2022-11-15T13:31:22.788Z,9.57
2022-11-15T13:33:49.472Z,9.57
2022-11-15T13:36:24.353Z,9.45
2022-11-15T13:39:13.654Z,9.18
2022-11-15T13:41:49.829Z,9.18
2022-11-15T13:44:22.878Z,6.43
2022-11-15T13:46:49.292Z,5.95
2022-11-15T13:49:15.839Z,6.60
2022-11-15T13:51:49.886Z,7.00
2022-11-15T13:54:24.815Z,5.90
2022-11-15T13:56:56.780Z,6.88
2022-11-15T13:59:28.095Z,6.50
2022-11-15T14:01:56.673Z,6.65
2022-11-15T14:04:26.200Z,6.00
2022-11-15T14:06:58.780Z,6.22
2022-11-15T14:09:37.554Z,5.90
2022-11-15T14:12:23.167Z,6.93
2022-11-15T14:14:49.541Z,7.60
2022-11-15T14:17:31.561Z,6.75
2022-11-15T14:19:59.041Z,6.25
2022-11-15T14:22:30.224Z,6.30
2022-11-15T14:25:16.518Z,6.30
2022-11-15T14:27:45.348Z,5.97
2022-11-15T14:30:18.567Z,6.13
2022-11-15T14:32:50.269Z,5.30
2022-11-15T14:35:19.751Z,5.72
2022-11-15T14:37:46.562Z,5.82
2022-11-15T14:40:15.570Z,5.50
2022-11-15T14:42:43.149Z,6.00
2022-11-15T14:45:20.690Z,6.00
2022-11-15T14:47:48.010Z,6.78
2022-11-15T14:50:16.695Z,7.32
2022-11-15T14:52:43.647Z,6.35
2022-11-15T14:55:24.636Z,6.40
2022-11-15T14:57:53.244Z,7.18
2022-11-15T15:00:20.070Z,6.72
2022-11-15T15:02:47.530Z,7.35
2022-11-15T15:05:15.113Z,7.32
2022-11-15T15:07:41.647Z,7.85
2022-11-15T15:10:38.360Z,8.63
2022-11-15T15:12:55.230Z,7.18
2022-11-15T15:15:26.701Z,7.32
2022-11-15T15:17:53.185Z,7.53
2022-11-15T15:20:19.549Z,6.88
2022-11-15T15:22:46.369Z,7.43
2022-11-15T15:25:34.455Z,6.30
2022-11-15T15:28:01.617Z,6.57
2022-11-15T15:30:31.007Z,6.97
2022-11-15T15:32:57.656Z,7.35
2022-11-15T15:35:30.198Z,6.57
2022-11-15T15:37:56.538Z,6.60
2022-11-15T15:40:24.961Z,7.35
2022-11-15T15:42:51.685Z,6.95
2022-11-15T15:45:19.137Z,6.53
2022-11-15T15:47:47.075Z,6.57
2022-11-15T15:50:25.447Z,7.13
2022-11-15T15:52:54.121Z,7.65
2022-11-15T15:55:21.090Z,6.13
2022-11-15T15:57:48.355Z,6.32
2022-11-15T16:00:15.542Z,6.53
2022-11-15T16:02:42.609Z,6.45
2022-11-15T16:05:10.135Z,7.13
2022-11-15T16:07:36.578Z,7.45
2022-11-15T16:10:14.458Z,7.22
2022-11-15T16:12:40.837Z,6.28
2022-11-15T16:15:08.594Z,6.43
2022-11-15T16:17:39.646Z,6.45
2022-11-15T16:20:06.880Z,7.05
2022-11-15T16:22:33.256Z,6.93
2022-11-15T16:24:59.841Z,5.80
2022-11-15T16:27:26.186Z,5.90
2022-11-15T16:29:52.568Z,7.45
2022-11-15T16:32:19.305Z,6.85
2022-11-15T16:34:49.047Z,6.38
2022-11-15T16:37:25.939Z,6.55
2022-11-15T16:39:55.896Z,5.57
2022-11-15T16:42:23.507Z,6.25
2022-11-15T16:44:50.354Z,7.75
2022-11-15T16:47:20.293Z,6.97
2022-11-15T16:49:47.236Z,7.07
2022-11-15T16:52:17.603Z,6.45
2022-11-15T16:54:47.421Z,6.32
2022-11-15T16:57:13.721Z,5.97
2022-11-15T16:59:40.484Z,5.80
2022-11-15T17:02:12.608Z,5.88
2022-11-15T17:04:39.499Z,5.70
2022-11-15T17:07:06.767Z,6.00
2022-11-15T17:09:34.213Z,5.50
2022-11-15T17:12:01.020Z,5.63
2022-11-15T17:14:27.414Z,5.72
2022-11-15T17:16:56.137Z,5.68
2022-11-15T17:19:22.927Z,5.47
2022-11-15T17:21:49.601Z,5.55
2022-11-15T17:24:17.136Z,5.30
2022-11-15T17:26:43.881Z,6.03
2022-11-15T17:29:10.281Z,6.93
2022-11-15T17:31:37.494Z,6.15
2022-11-15T17:34:06.039Z,5.78
2022-11-15T17:36:32.404Z,5.53
2022-11-15T17:38:59.876Z,5.70
2022-11-15T17:41:28.096Z,4.85
2022-11-15T17:43:58.195Z,5.40
2022-11-15T17:46:24.698Z,5.00
2022-11-15T17:48:51.643Z,5.03
2022-11-15T17:51:18.785Z,4.97
2022-11-15T17:53:46.962Z,4.72
2022-11-15T17:56:19.193Z,5.50
2022-11-15T17:58:57.295Z,5.28
2022-11-15T18:01:32.480Z,5.20
2022-11-15T18:04:01.826Z,4.63
2022-11-15T18:06:33.072Z,5.15
2022-11-15T18:08:59.786Z,5.68
2022-11-15T18:11:33.329Z,6.25
2022-11-15T18:14:05.092Z,5.80
2022-11-15T18:16:34.131Z,5.30
2022-11-15T18:19:00.497Z,4.57
2022-11-15T18:21:29.539Z,4.35
2022-11-15T18:23:58.889Z,4.53
2022-11-15T18:26:27.444Z,4.60
2022-11-15T18:28:57.733Z,5.00
2022-11-15T18:31:27.290Z,4.53
2022-11-15T18:33:54.213Z,4.15
2022-11-15T18:36:22.077Z,4.97
2022-11-15T18:38:48.811Z,4.57
2022-11-15T18:41:20.577Z,4.93
2022-11-15T18:43:51.415Z,4.97
2022-11-15T18:46:23.081Z,4.90
2022-11-15T18:48:51.750Z,5.15
2022-11-15T18:51:20.186Z,4.68
2022-11-15T18:53:47.288Z,4.35
2022-11-15T18:56:17.200Z,5.05
2022-11-15T18:58:46.029Z,5.07
2022-11-15T19:01:18.021Z,5.07
2022-11-15T19:03:47.843Z,4.70
2022-11-15T19:06:18.006Z,4.30
2022-11-15T19:08:46.694Z,5.30
2022-11-15T19:11:23.986Z,4.18
2022-11-15T19:14:03.792Z,4.65
2022-11-15T19:16:33.177Z,4.45
2022-11-15T19:19:02.421Z,4.45
2022-11-15T19:21:31.488Z,7.45
2022-11-15T19:23:59.170Z,4.95
2022-11-15T19:26:27.061Z,4.32
2022-11-15T19:28:56.410Z,4.32
2022-11-15T19:31:24.279Z,5.60
2022-11-15T19:33:52.484Z,4.97
2022-11-15T19:36:21.941Z,4.97
2022-11-15T19:38:48.489Z,5.10
2022-11-15T19:41:17.561Z,4.60
2022-11-15T19:43:44.437Z,4.70
2022-11-15T19:46:12.237Z,4.78
2022-11-15T19:48:38.733Z,4.65
2022-11-15T19:51:12.333Z,6.78
2022-11-15T19:53:39.364Z,12.07
2022-11-15T19:56:11.003Z,6.50
2022-11-15T19:58:37.939Z,6.68
2022-11-15T20:01:18.282Z,6.05
2022-11-15T20:03:45.333Z,8.43
2022-11-15T20:06:15.713Z,9.77
2022-11-15T20:08:43.295Z,14.35
2022-11-15T20:11:10.588Z,14.07
2022-11-15T20:13:36.897Z,8.70
2022-11-15T20:16:03.467Z,7.53
2022-11-15T20:18:30.903Z,9.40
2022-11-15T20:20:58.370Z,8.20
2022-11-15T20:23:26.933Z,7.57
2022-11-15T20:25:53.871Z,8.10
2022-11-15T20:28:23.227Z,6.40
2022-11-15T20:30:53.636Z,6.07
2022-11-15T20:33:22.406Z,6.07
2022-11-15T20:35:49.561Z,6.15
2022-11-15T20:38:16.977Z,4.90
2022-11-15T20:40:47.678Z,5.70
2022-11-15T20:43:17.632Z,5.50
2022-11-15T20:45:45.622Z,5.43
2022-11-15T20:48:15.839Z,5.35
2022-11-15T20:50:44.256Z,5.65
2022-11-15T20:53:13.263Z,5.85
2022-11-15T20:55:47.955Z,5.78
2022-11-15T20:58:15.666Z,4.72
2022-11-15T21:00:43.123Z,5.28
2022-11-15T21:03:09.558Z,5.25
2022-11-15T21:05:41.587Z,6.13
2022-11-15T21:08:08.925Z,6.28
2022-11-15T21:10:54.608Z,6.40
2022-11-15T21:13:21.770Z,5.32
2022-11-15T21:15:48.218Z,5.20
2022-11-15T21:18:16.102Z,5.10
2022-11-15T21:20:42.858Z,5.18
2022-11-15T21:23:09.972Z,5.28
2022-11-15T21:25:36.927Z,5.32
2022-11-15T21:28:03.415Z,4.78
2022-11-15T21:30:30.052Z,5.18
2022-11-15T21:32:57.023Z,5.57
2022-11-15T21:35:23.796Z,5.95
2022-11-15T21:37:56.068Z,5.50
2022-11-15T21:40:24.378Z,4.90
2022-11-15T21:42:50.703Z,5.45
2022-11-15T21:45:18.435Z,5.30
2022-11-15T21:47:46.591Z,4.72
2022-11-15T21:50:13.747Z,5.78
2022-11-15T21:52:41.041Z,5.10
2022-11-15T21:55:08.326Z,4.47
2022-11-15T21:57:34.754Z,5.25
2022-11-15T22:00:20.250Z,5.45
2022-11-15T22:02:46.572Z,5.97
2022-11-15T22:05:13.541Z,7.05
2022-11-15T22:07:39.945Z,8.57
2022-11-15T22:10:06.662Z,13.85
2022-11-15T22:12:33.437Z,29.27
2022-11-15T22:14:59.760Z,25.05
2022-11-15T22:17:46.746Z,12.82
2022-11-15T22:20:37.747Z,14.00
2022-11-15T22:23:01.703Z,9.88
2022-11-15T22:25:28.381Z,7.95
2022-11-15T22:27:54.828Z,8.45
2022-11-15T22:30:22.229Z,7.88
2022-11-15T22:32:48.570Z,7.40
2022-11-15T22:35:14.952Z,7.95
2022-11-15T22:37:41.997Z,6.65
2022-11-15T22:40:09.211Z,7.18
2022-11-15T22:42:35.568Z,7.63
2022-11-15T22:45:02.257Z,6.90
2022-11-15T22:47:28.585Z,7.40
2022-11-15T22:49:54.914Z,7.53
2022-11-15T22:52:21.828Z,6.95
2022-11-15T22:54:48.182Z,7.32
2022-11-15T22:57:14.496Z,7.00
2022-11-15T22:59:42.718Z,7.38
2022-11-15T23:02:09.248Z,7.53
2022-11-15T23:04:35.607Z,6.68
2022-11-15T23:07:01.952Z,7.22
2022-11-15T23:09:28.337Z,7.88
2022-11-15T23:12:13.378Z,6.82
2022-11-15T23:14:39.843Z,7.53
2022-11-15T23:17:06.219Z,8.02
2022-11-15T23:19:32.989Z,7.40
2022-11-15T23:22:18.741Z,7.53
2022-11-15T23:24:45.070Z,7.15
2022-11-15T23:27:15.068Z,7.20
2022-11-15T23:30:00.585Z,6.45
2022-11-15T23:32:45.243Z,7.75
2022-11-15T23:35:11.977Z,6.13
2022-11-15T23:37:38.412Z,6.93
2022-11-15T23:40:05.860Z,6.75
2022-11-15T23:42:32.195Z,7.45
2022-11-15T23:44:58.502Z,6.70
2022-11-15T23:47:25.430Z,7.50
2022-11-15T23:49:51.751Z,7.65
2022-11-15T23:52:18.157Z,7.75
2022-11-15T23:54:45.010Z,7.28
2022-11-15T23:57:12.320Z,7.25
2022-11-15T23:59:40.716Z,7.40
